Time;durP1;ratioP1;P1;durP2;ratioP2;P2;SDS_P1;SDS_P2;PMS_P1;PMS_P2;Temp;Humidity;BMP_temperature;BMP_pressure;BME280_temperature;BME280_humidity;BME280_pressure;Samples;Min_cycle;Max_cycle;Signal;HPM_P1;HPM_P2
2022/05/16 00:00:21;;;;;;;2.35;1.83;;;;;;;22.16;44.52;100184.44;4975190;28;20943;-71
2022/05/16 00:02:46;;;;;;;4.05;1.75;;;;;;;22.17;44.50;100180.53;4973408;28;20867;-71
2022/05/16 00:05:13;;;;;;;2.23;2.03;;;;;;;22.11;44.17;100179.91;4974927;28;20416;-71
2022/05/16 00:07:38;;;;;;;1.93;1.60;;;;;;;22.07;44.28;100175.34;4974601;28;20586;-71
2022/05/16 00:10:04;;;;;;;6.68;2.15;;;;;;;22.04;44.42;100178.78;4975085;28;20396;-72
2022/05/16 00:12:30;;;;;;;3.88;1.92;;;;;;;22.01;44.51;100179.44;4973658;28;20409;-72
2022/05/16 00:14:55;;;;;;;3.57;1.53;;;;;;;21.97;44.61;100176.50;4975089;28;20748;-73
2022/05/16 00:17:20;;;;;;;3.00;1.57;;;;;;;21.96;44.77;100180.44;4975129;28;20427;-73
2022/05/16 00:19:46;;;;;;;3.33;1.30;;;;;;;21.94;45.05;100181.88;4975033;28;20396;-72
2022/05/16 00:22:11;;;;;;;3.95;1.60;;;;;;;21.90;45.40;100184.47;4973245;28;20466;-72
2022/05/16 00:24:43;;;;;;;3.17;1.67;;;;;;;21.88;45.45;100186.72;4973667;28;20408;-73
2022/05/16 00:27:10;;;;;;;4.75;1.70;;;;;;;21.82;45.65;100184.47;4974891;28;20407;-72
2022/05/16 00:29:36;;;;;;;3.40;1.33;;;;;;;21.79;46.05;100194.22;4974637;28;20554;-72
2022/05/16 00:32:01;;;;;;;4.70;1.60;;;;;;;21.65;46.40;100201.84;4973360;28;20973;-72
2022/05/16 00:34:27;;;;;;;2.87;1.83;;;;;;;21.50;47.29;100210.59;4967127;28;20516;-72
2022/05/16 00:36:52;;;;;;;3.55;1.80;;;;;;;21.28;48.12;100210.72;4943546;29;20417;-72
2022/05/16 00:39:20;;;;;;;3.55;1.90;;;;;;;21.12;48.66;100205.66;4968602;28;20644;-72
2022/05/16 00:41:46;;;;;;;5.67;1.60;;;;;;;21.17;48.44;100200.00;4960431;28;20915;-72
2022/05/16 00:44:13;;;;;;;3.95;2.00;;;;;;;21.25;48.24;100197.56;4972507;28;20444;-72
2022/05/16 00:46:38;;;;;;;3.83;1.85;;;;;;;21.30;47.96;100192.75;4962429;28;20418;-72
2022/05/16 00:49:09;;;;;;;5.73;1.73;;;;;;;21.33;48.02;100194.84;4967981;28;20385;-72
2022/05/16 00:51:46;;;;;;;3.60;1.77;;;;;;;21.31;48.01;100207.31;4964268;28;20493;-72
2022/05/16 00:54:34;;;;;;;2.63;1.60;;;;;;;21.13;48.32;100201.78;4973027;28;20505;-72
2022/05/16 00:57:04;;;;;;;4.55;2.30;;;;;;;21.03;48.42;100198.47;4974502;28;20396;-72
2022/05/16 00:59:43;;;;;;;2.53;2.15;;;;;;;21.12;48.36;100208.41;4955546;28;20831;-72
2022/05/16 01:04:55;;;;;;;5.10;2.22;;;;;;;21.23;48.57;100206.19;4960435;28;20765;-72
2022/05/16 01:07:33;;;;;;;2.05;1.85;;;;;;;21.26;48.30;100204.72;4972259;28;20404;-73
2022/05/16 01:09:58;;;;;;;3.73;2.20;;;;;;;21.24;48.33;100198.72;4974146;28;20396;-72
2022/05/16 01:12:30;;;;;;;6.18;2.67;;;;;;;21.19;48.78;100194.16;4972771;28;20414;-72
2022/05/16 01:14:57;;;;;;;3.25;2.95;;;;;;;21.07;49.02;100194.78;4972727;28;20428;-72
2022/05/16 01:17:24;;;;;;;4.97;2.70;;;;;;;21.07;48.93;100199.47;4974023;28;20388;-72
2022/05/16 01:19:50;;;;;;;5.00;2.53;;;;;;;20.89;49.16;100200.53;4974118;28;20849;-72
2022/05/16 01:22:50;;;;;;;3.60;2.17;;;;;;;20.78;49.05;100197.25;4973922;28;20480;-72
2022/05/16 01:25:27;;;;;;;2.95;2.25;;;;;;;20.67;49.34;100199.50;4960894;28;20447;-72
2022/05/16 01:27:58;;;;;;;5.90;2.08;;;;;;;20.64;49.27;100188.31;4973801;28;21267;-72
2022/05/16 01:30:30;;;;;;;5.10;2.43;;;;;;;20.59;49.50;100191.19;4973169;28;20419;-72
2022/05/16 01:32:56;;;;;;;3.67;2.23;;;;;;;20.59;49.51;100181.00;4973464;28;20416;-72
2022/05/16 01:35:25;;;;;;;2.87;2.27;;;;;;;20.62;49.38;100182.28;4972502;28;20562;-72
2022/05/16 01:40:36;;;;;;;5.28;2.63;;;;;;;20.78;49.28;100175.22;4973907;28;20388;-72
2022/05/16 01:43:01;;;;;;;3.30;2.10;;;;;;;20.82;49.07;100164.38;4966588;28;20837;-72
2022/05/16 01:45:27;;;;;;;1.90;1.80;;;;;;;20.83;49.12;100177.03;4972039;28;20447;-72
2022/05/16 01:47:52;;;;;;;2.90;2.10;;;;;;;20.86;49.18;100168.94;4972939;28;20389;-72
2022/05/16 01:50:18;;;;;;;3.70;2.17;;;;;;;20.84;49.24;100173.16;4972127;28;20434;-73
2022/05/16 01:52:43;;;;;;;4.67;2.30;;;;;;;20.72;49.52;100173.75;4972353;28;20441;-72
2022/05/16 01:55:11;;;;;;;2.10;2.00;;;;;;;20.60;50.06;100168.06;4973110;28;20403;-72
2022/05/16 01:57:37;;;;;;;2.65;2.45;;;;;;;20.59;50.05;100166.41;4972550;28;20467;-72
2022/05/16 02:00:04;;;;;;;7.53;2.00;;;;;;;20.59;50.08;100163.66;4971394;28;20871;-72
2022/05/16 02:02:29;;;;;;;3.88;2.45;;;;;;;20.56;50.48;100158.78;4970597;28;20414;-72
2022/05/16 02:04:55;;;;;;;4.97;2.27;;;;;;;20.55;50.42;100157.16;4972045;28;20761;-72
2022/05/16 02:07:20;;;;;;;3.70;2.50;;;;;;;20.52;50.98;100164.13;4972986;28;20400;-72
2022/05/16 02:09:45;;;;;;;4.43;2.53;;;;;;;20.51;50.91;100168.03;4971865;28;20402;-72
2022/05/16 02:12:11;;;;;;;4.57;2.23;;;;;;;20.53;50.92;100178.69;4973064;28;20408;-72
2022/05/16 02:14:36;;;;;;;4.40;2.70;;;;;;;20.49;50.89;100184.03;4971407;28;20412;-72
2022/05/16 02:17:02;;;;;;;6.30;2.47;;;;;;;20.39;51.03;100189.00;4972943;28;20403;-72
2022/05/16 02:19:27;;;;;;;3.95;2.35;;;;;;;20.33;51.34;100173.75;4972749;28;20396;-72
2022/05/16 02:24:40;;;;;;;3.38;2.33;;;;;;;20.27;51.46;100178.59;4970578;28;20831;-72
2022/05/16 02:27:11;;;;;;;4.80;3.00;;;;;;;20.19;51.72;100166.38;4972754;28;20925;-72
2022/05/16 02:29:36;;;;;;;3.33;2.38;;;;;;;20.23;51.86;100165.72;4972833;28;20496;-73
2022/05/16 02:32:04;;;;;;;8.10;3.03;;;;;;;20.19;52.22;100168.31;4972818;28;20487;-72
2022/05/16 02:34:29;;;;;;;8.65;2.35;;;;;;;20.22;52.04;100164.13;4971339;28;20416;-72
2022/05/16 02:36:55;;;;;;;3.00;2.50;;;;;;;20.19;52.09;100168.31;4970999;28;20399;-72
2022/05/16 02:39:21;;;;;;;2.80;2.23;;;;;;;20.18;52.10;100166.69;4967437;28;20785;-72
2022/05/16 02:41:46;;;;;;;7.60;2.72;;;;;;;20.19;51.95;100158.09;4971598;28;20499;-72
2022/05/16 02:44:13;;;;;;;4.30;2.80;;;;;;;20.22;51.98;100167.66;4971758;28;20749;-73
2022/05/16 02:46:39;;;;;;;3.08;2.38;;;;;;;20.23;52.18;100173.97;4972580;28;20408;-72
2022/05/16 02:49:04;;;;;;;3.10;2.38;;;;;;;20.23;52.19;100183.06;4972817;28;20400;-72
2022/05/16 02:51:30;;;;;;;5.13;2.53;;;;;;;20.24;52.26;100183.88;4972653;28;20859;-72
2022/05/16 02:53:56;;;;;;;2.45;2.20;;;;;;;20.24;52.39;100183.88;4970090;28;20416;-72
2022/05/16 02:56:21;;;;;;;3.17;2.47;;;;;;;20.25;52.51;100182.75;4971848;28;20405;-72
2022/05/16 02:58:46;;;;;;;6.00;2.55;;;;;;;20.29;52.46;100186.50;4972227;28;20894;-73
2022/05/16 03:01:12;;;;;;;3.30;2.63;;;;;;;20.34;52.56;100192.72;4972513;28;20399;-72
2022/05/16 03:03:41;;;;;;;3.50;2.90;;;;;;;20.37;52.30;100191.25;4968368;28;20474;-73
2022/05/16 03:06:07;;;;;;;7.53;2.70;;;;;;;20.35;52.51;100190.78;4972395;28;20423;-72
2022/05/16 03:08:33;;;;;;;5.53;2.80;;;;;;;20.28;52.83;100188.47;4972711;28;20389;-72
2022/05/16 03:10:58;;;;;;;6.68;2.65;;;;;;;20.22;53.13;100195.19;4972547;28;20455;-72
2022/05/16 03:13:24;;;;;;;4.80;2.57;;;;;;;20.19;53.00;100195.81;4971444;28;20416;-72
2022/05/16 03:15:50;;;;;;;3.17;2.40;;;;;;;20.17;53.13;100189.81;4972696;28;20470;-72
2022/05/16 03:18:15;;;;;;;2.88;2.38;;;;;;;20.15;53.22;100190.13;4971050;28;20462;-72
2022/05/16 03:20:40;;;;;;;3.57;2.67;;;;;;;20.09;53.36;100187.81;4969873;28;20448;-72
2022/05/16 03:23:06;;;;;;;5.53;2.30;;;;;;;20.05;53.63;100201.41;4972211;28;20978;-72
2022/05/16 03:25:31;;;;;;;5.90;2.50;;;;;;;20.03;53.58;100178.06;4970971;28;20404;-72
2022/05/16 03:27:57;;;;;;;3.75;2.60;;;;;;;19.95;54.01;100192.59;4966427;28;20499;-72
2022/05/16 03:30:22;;;;;;;3.03;2.60;;;;;;;19.91;54.20;100192.41;4976444;28;20812;-72
2022/05/16 03:32:48;;;;;;;3.93;2.67;;;;;;;19.91;54.23;100189.66;4975768;28;20404;-72
2022/05/16 03:35:14;;;;;;;4.18;2.80;;;;;;;19.91;54.20;100200.66;4976161;28;20799;-72
2022/05/16 03:37:39;;;;;;;4.03;3.03;;;;;;;19.93;54.20;100200.34;4974700;28;20412;-72
2022/05/16 03:42:49;;;;;;;6.78;3.20;;;;;;;19.90;54.32;100198.22;4974574;28;20423;-72
2022/05/16 03:45:14;;;;;;;3.47;2.90;;;;;;;19.91;54.26;100205.34;4975715;28;20416;-72
2022/05/16 03:47:40;;;;;;;8.90;3.50;;;;;;;19.93;54.36;100214.09;4974509;28;20455;-73
2022/05/16 03:50:06;;;;;;;15.37;6.83;;;;;;;20.00;54.54;100212.53;4975180;28;20428;-72
2022/05/16 03:52:31;;;;;;;10.30;5.47;;;;;;;20.01;54.36;100216.91;4973073;28;20483;-72
2022/05/16 03:54:57;;;;;;;11.20;4.77;;;;;;;19.94;54.52;100211.03;4973495;28;20899;-72
2022/05/16 03:57:22;;;;;;;4.50;3.50;;;;;;;19.92;54.47;100212.47;4975246;28;20487;-72
2022/05/16 03:59:47;;;;;;;4.93;3.40;;;;;;;19.90;54.51;100212.78;4975355;28;20470;-72
2022/05/16 04:02:13;;;;;;;6.07;3.43;;;;;;;19.88;54.69;100201.28;4974976;28;20795;-72
2022/05/16 04:04:38;;;;;;;3.27;2.57;;;;;;;19.86;54.78;100203.53;4973191;28;20823;-71
2022/05/16 04:07:04;;;;;;;4.20;3.37;;;;;;;19.81;54.75;100203.66;4975002;28;20424;-72
2022/05/16 04:09:29;;;;;;;3.45;3.00;;;;;;;19.77;54.94;100219.16;4973964;28;20455;-72
2022/05/16 04:11:54;;;;;;;5.20;3.07;;;;;;;19.76;55.10;100217.53;4972067;28;20420;-72
2022/05/16 04:14:19;;;;;;;5.60;2.90;;;;;;;19.74;55.06;100219.78;4981433;28;20404;-72
2022/05/16 04:16:45;;;;;;;5.60;3.00;;;;;;;19.75;55.17;100226.91;4975093;28;20400;-72
2022/05/16 04:19:10;;;;;;;4.37;2.57;;;;;;;19.78;55.36;100225.47;4974136;28;20423;-72
2022/05/16 04:21:38;;;;;;;4.82;3.17;;;;;;;19.76;56.52;100225.75;4974694;28;20681;-72
2022/05/16 04:24:05;;;;;;;6.07;3.50;;;;;;;19.74;57.26;100222.53;4973752;28;20503;-72
2022/05/16 04:26:30;;;;;;;4.15;3.22;;;;;;;19.74;57.34;100222.53;4973328;28;20420;-72
2022/05/16 04:28:57;;;;;;;3.67;2.90;;;;;;;19.75;57.33;100213.16;4974896;28;20621;-72
2022/05/16 04:31:23;;;;;;;6.78;3.22;;;;;;;19.75;57.60;100215.91;4974792;28;20396;-72
2022/05/16 04:33:48;;;;;;;11.77;4.50;;;;;;;19.76;58.05;100213.97;4978125;28;20423;-72
2022/05/16 04:36:13;;;;;;;7.93;3.17;;;;;;;19.71;58.62;100216.84;4971376;28;20903;-72
2022/05/16 04:38:39;;;;;;;4.77;3.10;;;;;;;19.61;59.34;100215.97;4974086;28;20396;-71
2022/05/16 04:43:49;;;;;;;4.63;3.10;;;;;;;19.63;58.98;100218.38;4976757;28;20396;-73
2022/05/16 04:46:15;;;;;;;10.43;3.70;;;;;;;19.67;59.14;100224.88;4974530;28;20426;-72
2022/05/16 04:48:40;;;;;;;5.40;3.83;;;;;;;19.72;58.95;100226.72;4974931;28;20475;-72
2022/05/16 04:51:05;;;;;;;6.87;3.80;;;;;;;19.75;59.01;100226.91;4974502;28;20431;-72
2022/05/16 04:53:31;;;;;;;7.13;4.35;;;;;;;19.76;58.99;100228.50;4973322;28;20455;-72
2022/05/16 04:55:56;;;;;;;5.47;3.93;;;;;;;19.77;58.74;100232.09;4973835;28;20423;-72
2022/05/16 04:58:23;;;;;;;5.10;3.83;;;;;;;19.79;58.80;100238.88;4974438;28;20397;-72
2022/05/16 05:00:48;;;;;;;9.03;4.20;;;;;;;19.80;58.79;100235.03;4972838;28;20431;-72
2022/05/16 05:03:13;;;;;;;9.32;3.20;;;;;;;19.82;58.82;100238.28;4974204;28;20498;-72
2022/05/16 05:05:39;;;;;;;6.43;3.57;;;;;;;19.83;58.75;100241.84;4974001;28;20411;-72
2022/05/16 05:08:04;;;;;;;5.47;3.30;;;;;;;19.83;58.44;100242.66;4972044;28;20424;-72
2022/05/16 05:16:14;;;;;;;5.85;2.70;;;;;;;19.79;58.54;100244.38;4962996;28;20404;-72
2022/05/16 05:18:40;;;;;;;5.40;3.10;;;;;;;19.80;58.97;100247.97;4973099;28;20397;-72
2022/05/16 05:21:06;;;;;;;6.95;2.90;;;;;;;19.81;59.16;100247.66;4972524;28;21047;-72
2022/05/16 05:23:33;;;;;;;4.15;3.17;;;;;;;19.83;59.38;100253.66;4973858;28;20400;-72
2022/05/16 05:25:59;;;;;;;4.13;3.15;;;;;;;19.88;59.51;100255.47;4972906;28;20459;-72
2022/05/16 05:28:25;;;;;;;4.87;2.93;;;;;;;19.92;59.78;100262.78;4973703;28;20436;-72
2022/05/16 05:30:50;;;;;;;5.95;3.65;;;;;;;19.96;59.59;100265.72;4972893;28;20469;-72
2022/05/16 05:33:15;;;;;;;6.93;3.17;;;;;;;19.98;59.60;100266.25;4974353;28;20848;-72
2022/05/16 05:35:41;;;;;;;6.72;3.60;;;;;;;20.00;59.47;100267.53;4972703;28;20483;-72
2022/05/16 05:38:06;;;;;;;5.10;3.20;;;;;;;19.99;59.42;100268.66;4977674;28;20417;-72
2022/05/16 05:40:31;;;;;;;5.73;2.97;;;;;;;20.01;59.21;100271.13;4974146;28;20832;-72
2022/05/16 05:43:02;;;;;;;5.30;3.20;;;;;;;20.03;59.27;100280.69;4974626;28;21022;-71
2022/05/16 05:45:27;;;;;;;3.67;3.10;;;;;;;20.03;59.54;100274.34;4981329;28;20415;-72
2022/05/16 05:47:53;;;;;;;3.83;3.33;;;;;;;20.06;59.49;100276.47;4973345;28;20408;-72
2022/05/16 05:50:18;;;;;;;5.80;3.50;;;;;;;20.09;59.10;100271.16;4971909;28;20407;-72
2022/05/16 05:52:43;;;;;;;7.30;3.55;;;;;;;20.13;59.20;100283.19;4974339;28;20480;-71
2022/05/16 05:55:09;;;;;;;7.63;3.47;;;;;;;20.13;59.31;100287.88;4973522;28;20388;-71
2022/05/16 05:57:34;;;;;;;3.30;3.10;;;;;;;20.08;59.35;100288.81;4973176;28;20400;-71
2022/05/16 05:59:59;;;;;;;4.40;3.17;;;;;;;20.09;59.74;100295.09;4976803;28;20525;-72
2022/05/16 06:02:24;;;;;;;3.73;3.00;;;;;;;20.09;59.68;100295.94;4971896;28;20408;-72
2022/05/16 06:04:50;;;;;;;5.07;3.22;;;;;;;20.11;59.81;100304.69;4973154;28;20392;-72
2022/05/16 06:07:15;;;;;;;5.40;3.53;;;;;;;20.09;59.88;100301.44;4973284;28;20393;-72
2022/05/16 06:09:41;;;;;;;6.13;3.47;;;;;;;20.10;59.99;100307.75;4973160;28;20401;-71
2022/05/16 06:12:07;;;;;;;5.30;3.60;;;;;;;20.13;60.21;100310.69;4973382;28;20490;-71
2022/05/16 06:14:33;;;;;;;4.60;3.60;;;;;;;20.17;60.05;100324.66;4974490;28;20404;-72
2022/05/16 06:16:58;;;;;;;5.38;3.50;;;;;;;20.18;60.23;100323.53;4974389;28;20418;-73
2022/05/16 06:19:24;;;;;;;3.77;3.43;;;;;;;20.24;60.11;100325.03;4980989;28;20411;-72
2022/05/16 06:21:49;;;;;;;7.20;3.60;;;;;;;20.25;59.60;100337.66;4975225;28;20415;-71
2022/05/16 06:26:59;;;;;;;9.48;4.30;;;;;;;20.40;59.80;100337.31;4972731;28;20423;-72
2022/05/16 06:29:25;;;;;;;7.17;3.93;;;;;;;20.49;59.85;100343.69;4971483;28;20412;-72
2022/05/16 06:31:52;;;;;;;6.90;3.87;;;;;;;20.57;59.82;100348.47;4970704;28;20433;-72
2022/05/16 06:34:17;;;;;;;5.43;3.40;;;;;;;20.69;59.96;100356.94;4971521;28;20811;-72
2022/05/16 06:36:42;;;;;;;5.55;3.50;;;;;;;20.80;59.09;100345.69;4973558;28;20447;-72
2022/05/16 06:39:08;;;;;;;6.83;3.70;;;;;;;20.90;58.95;100348.16;4969384;28;20412;-72
2022/05/16 06:41:34;;;;;;;6.07;3.63;;;;;;;20.99;59.05;100357.28;4968934;28;20902;-72
2022/05/16 06:44:02;;;;;;;7.75;3.78;;;;;;;21.03;58.63;100367.38;4971903;28;21604;-72
2022/05/16 06:46:27;;;;;;;4.40;3.30;;;;;;;21.09;58.40;100354.25;4972608;28;20588;-72
2022/05/16 06:48:53;;;;;;;5.47;3.90;;;;;;;21.09;57.91;100357.84;4971464;28;20820;-72
2022/05/16 06:51:18;;;;;;;5.60;3.58;;;;;;;21.07;57.79;100370.31;4971597;28;20424;-72
2022/05/16 06:53:44;;;;;;;6.00;3.27;;;;;;;21.08;58.26;100363.63;4972050;28;20423;-72
2022/05/16 06:56:09;;;;;;;5.20;3.90;;;;;;;21.10;58.14;100355.91;4971900;28;20393;-72
2022/05/16 06:58:34;;;;;;;5.57;3.83;;;;;;;21.12;58.46;100371.00;4972155;28;20878;-72
2022/05/16 07:01:00;;;;;;;7.45;4.00;;;;;;;21.16;58.34;100368.44;4974989;28;20392;-72
2022/05/16 07:03:25;;;;;;;11.10;3.93;;;;;;;21.17;58.41;100370.84;4976513;28;20419;-72
2022/05/16 07:05:51;;;;;;;6.93;4.17;;;;;;;21.16;58.44;100372.00;4976430;28;20408;-72
2022/05/16 07:08:19;;;;;;;5.60;4.28;;;;;;;21.19;58.07;100376.88;4976277;28;20396;-72
2022/05/16 07:10:46;;;;;;;5.97;3.63;;;;;;;21.23;58.30;100382.56;4975605;28;20411;-72
2022/05/16 07:13:13;;;;;;;5.07;3.28;;;;;;;21.28;58.39;100398.13;4978538;28;20480;-72
2022/05/16 07:15:38;;;;;;;7.90;4.15;;;;;;;21.39;58.28;100385.72;4975526;28;20498;-72
2022/05/16 07:18:04;;;;;;;7.13;4.43;;;;;;;21.53;58.68;100386.41;4979173;28;20489;-72
2022/05/16 07:20:29;;;;;;;7.20;4.17;;;;;;;21.68;58.51;100388.72;4987978;28;20452;-72
2022/05/16 07:22:58;;;;;;;5.30;3.67;;;;;;;21.78;58.19;100388.44;4975884;28;20939;-72
2022/05/16 07:25:26;;;;;;;4.97;3.65;;;;;;;21.85;57.11;100390.72;4985210;28;20424;-72
2022/05/16 07:28:01;;;;;;;6.93;3.47;;;;;;;21.91;57.08;100400.50;4975917;28;20479;-72
2022/05/16 07:30:30;;;;;;;6.15;3.45;;;;;;;21.95;57.02;100398.72;4977830;28;20420;-71
2022/05/16 07:32:56;;;;;;;5.30;3.55;;;;;;;21.96;57.28;100401.16;4976397;28;20499;-72
2022/05/16 07:35:26;;;;;;;6.30;3.45;;;;;;;21.96;56.97;100398.41;4974541;28;20432;-72
2022/05/16 07:37:56;;;;;;;8.15;3.90;;;;;;;21.98;56.77;100400.84;4978487;28;20404;-72
2022/05/16 07:40:24;;;;;;;4.00;3.33;;;;;;;22.01;56.77;100409.28;4974684;28;20413;-72
2022/05/16 07:42:50;;;;;;;7.60;3.08;;;;;;;22.02;57.00;100402.63;4974677;28;20892;-72
2022/05/16 07:45:16;;;;;;;5.70;3.20;;;;;;;22.06;56.77;100406.34;4975509;28;20412;-72
2022/05/16 07:47:42;;;;;;;8.07;3.50;;;;;;;22.04;56.47;100418.84;4975520;28;20403;-72
2022/05/16 07:50:08;;;;;;;5.20;3.20;;;;;;;22.05;57.17;100415.78;4971909;28;20405;-72
2022/05/16 07:52:33;;;;;;;4.07;3.53;;;;;;;22.00;57.30;100413.16;4973745;28;20441;-72
2022/05/16 07:54:59;;;;;;;4.77;3.07;;;;;;;21.94;57.94;100414.47;4975416;28;20428;-72
2022/05/16 07:57:24;;;;;;;6.05;3.72;;;;;;;22.01;58.01;100416.75;4974229;28;20404;-72
2022/05/16 07:59:50;;;;;;;5.20;3.63;;;;;;;22.08;57.71;100422.59;4975609;28;20388;-73
2022/05/16 08:02:15;;;;;;;4.83;3.20;;;;;;;22.10;57.83;100425.84;4975400;28;20396;-72
2022/05/16 08:04:41;;;;;;;3.33;2.90;;;;;;;22.07;57.76;100430.06;4975263;28;20500;-72
2022/05/16 08:07:07;;;;;;;6.20;3.40;;;;;;;22.04;58.18;100432.66;4975242;28;20426;-73
2022/05/16 08:12:30;;;;;;;3.97;3.17;;;;;;;22.06;57.96;100439.47;4974429;28;20392;-72
2022/05/16 08:14:56;;;;;;;4.93;3.70;;;;;;;22.07;57.89;100430.06;4975036;28;20741;-72
2022/05/16 08:17:22;;;;;;;3.70;3.33;;;;;;;22.08;57.85;100433.66;4978469;28;20420;-72
2022/05/16 08:19:48;;;;;;;3.10;2.90;;;;;;;22.16;57.95;100435.63;4983205;28;20418;-72
2022/05/16 08:22:14;;;;;;;4.15;3.67;;;;;;;22.27;57.70;100442.44;4959464;28;20400;-72
2022/05/16 08:24:40;;;;;;;3.95;3.38;;;;;;;22.35;57.69;100435.31;4975091;28;20389;-72
2022/05/16 08:27:05;;;;;;;5.03;3.30;;;;;;;22.41;57.45;100440.34;4983228;28;20490;-73
2022/05/16 08:29:31;;;;;;;6.30;3.17;;;;;;;22.53;56.68;100440.50;4974966;28;20400;-73
2022/05/16 08:31:57;;;;;;;6.72;2.90;;;;;;;22.60;56.88;100442.78;4970277;28;20412;-72
2022/05/16 08:34:23;;;;;;;5.77;3.27;;;;;;;22.72;56.53;100452.06;4972286;28;20431;-72
2022/05/16 08:42:22;;;;;;;5.20;3.10;;;;;;;23.09;54.80;100458.03;4974577;28;20926;-72
2022/05/16 08:45:06;;;;;;;8.32;3.42;;;;;;;23.21;54.69;100453.47;4972397;28;20775;-72
2022/05/16 08:47:39;;;;;;;5.87;3.40;;;;;;;23.37;54.60;100464.00;4974285;28;20427;-72
2022/05/16 08:50:18;;;;;;;7.07;3.28;;;;;;;23.50;52.94;100458.31;4974052;28;20942;-72
2022/05/16 08:53:02;;;;;;;4.43;3.15;;;;;;;23.55;52.31;100474.69;4974132;28;20597;-72
2022/05/16 08:55:37;;;;;;;7.55;3.10;;;;;;;23.60;51.89;100465.41;4972194;28;20499;-72
2022/05/16 08:58:03;;;;;;;4.90;3.53;;;;;;;23.68;51.59;100476.44;4973409;28;20412;-71
2022/05/16 09:00:41;;;;;;;5.50;2.80;;;;;;;23.84;51.78;100478.66;4974385;28;20883;-71
2022/05/16 09:03:12;;;;;;;8.37;3.03;;;;;;;23.99;51.47;100469.78;4974337;28;20447;-71
2022/05/16 09:05:51;;;;;;;5.05;2.95;;;;;;;24.12;50.15;100477.09;4972521;28;20428;-72
2022/05/16 09:08:37;;;;;;;7.90;2.97;;;;;;;24.25;49.92;100465.75;4963622;28;20604;-72
2022/05/16 09:11:08;;;;;;;7.18;3.45;;;;;;;24.39;49.77;100473.81;4971590;28;20416;-72
2022/05/16 09:13:46;;;;;;;6.28;3.03;;;;;;;24.53;50.24;100481.88;4973820;28;20423;-72
2022/05/16 09:16:54;;;;;;;3.70;3.10;;;;;;;24.60;50.22;100485.69;4969623;28;20459;-71
2022/05/16 09:19:41;;;;;;;7.18;3.00;;;;;;;24.72;49.50;100484.97;4949401;29;20951;-72
2022/05/16 09:22:17;;;;;;;8.38;3.30;;;;;;;24.76;49.73;100488.69;4968699;28;20447;-72
2022/05/16 09:24:51;;;;;;;8.10;2.90;;;;;;;24.80;49.75;100492.38;4971927;28;20528;-72
2022/05/16 09:30:34;;;;;;;9.18;2.50;;;;;;;24.87;49.50;100514.06;4970189;28;20577;-72
2022/05/16 09:33:00;;;;;;;5.20;2.00;;;;;;;24.91;47.10;100507.50;4972582;28;20507;-72
2022/05/16 09:35:28;;;;;;;8.07;2.20;;;;;;;24.92;45.75;100511.91;4971095;28;20424;-72
2022/05/16 09:37:55;;;;;;;5.40;1.88;;;;;;;25.08;45.89;100517.63;4972049;28;20839;-71
2022/05/16 09:40:24;;;;;;;7.38;1.95;;;;;;;25.06;45.96;100512.41;4969277;28;20440;-71
2022/05/16 09:42:52;;;;;;;6.22;1.50;;;;;;;25.07;45.54;100527.09;4973101;28;20432;-71
2022/05/16 09:45:22;;;;;;;4.80;1.55;;;;;;;25.07;45.60;100535.41;4971230;28;20443;-71
2022/05/16 09:47:47;;;;;;;7.28;1.67;;;;;;;24.97;45.34;100538.59;4973554;28;20751;-71
2022/05/16 09:50:21;;;;;;;4.53;1.40;;;;;;;24.82;45.12;100541.97;4973361;28;20491;-71
2022/05/16 09:53:09;;;;;;;3.88;1.58;;;;;;;24.74;45.67;100552.78;4971096;28;20418;-71
2022/05/16 09:55:48;;;;;;;8.27;1.80;;;;;;;24.74;45.99;100560.25;4972367;28;20518;-71
2022/05/16 09:58:18;;;;;;;10.90;2.22;;;;;;;24.73;45.18;100564.22;4973327;28;20404;-72
2022/05/16 10:00:54;;;;;;;4.73;1.60;;;;;;;24.61;46.07;100570.47;4973233;28;20463;-72
2022/05/16 10:03:47;;;;;;;4.43;1.40;;;;;;;24.45;45.64;100574.16;4972457;28;20424;-72
2022/05/16 10:06:36;;;;;;;5.65;2.20;;;;;;;24.16;45.56;100586.03;4972768;28;20506;-71
2022/05/16 10:09:09;;;;;;;4.20;1.38;;;;;;;23.92;45.90;100605.13;4973145;28;20400;-71
2022/05/16 10:11:37;;;;;;;6.50;1.63;;;;;;;23.86;46.10;100601.72;4972864;28;20396;-71
2022/05/16 10:14:03;;;;;;;4.38;1.67;;;;;;;23.76;46.38;100605.66;4972094;28;20957;-71
2022/05/16 10:16:31;;;;;;;5.57;1.90;;;;;;;23.66;46.45;100606.00;4970939;28;20471;-71
2022/05/16 10:19:12;;;;;;;7.83;2.07;;;;;;;23.56;46.88;100620.19;4972770;28;20407;-71
2022/05/16 10:21:48;;;;;;;8.88;1.73;;;;;;;23.32;46.65;100613.50;4972697;28;20480;-71
2022/05/16 10:24:13;;;;;;;4.15;1.58;;;;;;;23.28;46.50;100627.19;4971728;28;20463;-71
2022/05/16 10:26:42;;;;;;;8.60;1.30;;;;;;;23.27;46.69;100637.44;4971343;28;20428;-72
2022/05/16 10:29:12;;;;;;;3.40;0.90;;;;;;;23.24;46.72;100648.31;4972803;28;20439;-72
2022/05/16 10:34:50;;;;;;;5.88;1.48;;;;;;;22.94;46.88;100655.59;4971270;28;20783;-71
2022/05/16 10:37:17;;;;;;;4.32;1.00;;;;;;;22.83;47.53;100658.97;4966834;28;20405;-71
2022/05/16 10:39:48;;;;;;;4.40;0.98;;;;;;;22.72;48.05;100670.31;4971980;28;20404;-71
2022/05/16 10:42:24;;;;;;;3.22;1.23;;;;;;;22.64;48.64;100679.38;4972279;28;20400;-72
2022/05/16 10:45:00;;;;;;;5.72;1.60;;;;;;;22.58;51.00;100679.84;4972038;28;20412;-72
2022/05/16 10:47:31;;;;;;;3.38;1.30;;;;;;;22.50;51.61;100673.16;4972643;28;20415;-71
2022/05/16 10:50:14;;;;;;;4.43;1.40;;;;;;;22.31;52.67;100680.88;4969437;28;20940;-72
2022/05/16 10:52:48;;;;;;;2.72;1.23;;;;;;;22.31;53.26;100693.84;4968514;28;20392;-72
2022/05/16 10:55:14;;;;;;;3.80;1.52;;;;;;;22.33;54.72;100688.84;4972020;28;20386;-72
2022/05/16 10:57:55;;;;;;;3.40;1.10;;;;;;;22.25;55.84;100707.00;4970437;28;20483;-71
2022/05/16 11:00:44;;;;;;;4.32;1.63;;;;;;;22.06;57.40;100698.09;4968173;28;20406;-71
2022/05/16 11:03:36;;;;;;;1.65;1.40;;;;;;;22.15;58.22;100699.78;4969693;28;20400;-72
2022/05/16 11:06:20;;;;;;;5.38;1.80;;;;;;;21.86;59.93;100688.38;4971552;28;20475;-71
2022/05/16 11:08:58;;;;;;;3.00;1.58;;;;;;;21.76;60.83;100682.28;4971006;28;20895;-72
2022/05/16 11:11:32;;;;;;;3.77;1.67;;;;;;;21.71;61.84;100685.97;4969575;28;20432;-71
2022/05/16 11:14:30;;;;;;;4.63;1.85;;;;;;;21.80;61.82;100692.38;4963044;28;20613;-72
2022/05/16 11:17:02;;;;;;;2.72;1.70;;;;;;;21.67;62.14;100679.44;4968725;28;20416;-72
2022/05/16 11:19:44;;;;;;;5.10;1.70;;;;;;;21.80;62.23;100675.81;4972446;28;20399;-72
2022/05/16 11:22:26;;;;;;;4.97;1.73;;;;;;;21.92;62.33;100686.31;4971871;28;20883;-71
2022/05/16 11:25:15;;;;;;;3.90;1.70;;;;;;;22.00;61.81;100674.50;4972251;28;20401;-73
2022/05/16 11:27:57;;;;;;;5.03;1.70;;;;;;;22.14;61.91;100673.31;4970953;28;20841;-72
2022/05/16 11:30:39;;;;;;;2.17;1.50;;;;;;;22.28;62.01;100670.47;4972390;28;20547;-72
2022/05/16 11:33:31;;;;;;;3.17;1.73;;;;;;;21.97;62.05;100662.16;4959270;28;20456;-72
2022/05/16 11:36:01;;;;;;;2.05;1.88;;;;;;;21.79;63.15;100676.97;4970728;28;20404;-72
2022/05/16 11:38:57;;;;;;;2.83;2.00;;;;;;;21.69;63.79;100671.69;4971993;28;20401;-72
2022/05/16 11:41:31;;;;;;;9.23;2.72;;;;;;;21.56;64.03;100664.28;4968505;28;20443;-72
2022/05/16 11:44:31;;;;;;;3.22;2.10;;;;;;;21.57;64.01;100660.41;4971266;28;20411;-72
2022/05/16 11:47:14;;;;;;;4.33;2.30;;;;;;;21.69;63.80;100655.97;4980532;28;20482;-71
2022/05/16 11:49:54;;;;;;;3.05;1.98;;;;;;;21.63;64.07;100650.88;4969471;28;20413;-71
2022/05/16 11:52:35;;;;;;;4.35;2.03;;;;;;;21.72;64.06;100652.56;4976853;28;20420;-72
2022/05/16 12:00:53;;;;;;;4.17;1.67;;;;;;;21.96;62.24;100634.91;4961126;28;20430;-72
2022/05/16 12:03:20;;;;;;;1.83;1.25;;;;;;;22.42;60.93;100627.00;4975541;28;20396;-72
2022/05/16 12:05:49;;;;;;;3.75;1.98;;;;;;;22.93;59.74;100628.28;4974884;28;20474;-71
2022/05/16 12:08:40;;;;;;;4.10;1.63;;;;;;;23.51;58.36;100619.56;4975051;28;20729;-72
2022/05/16 12:11:13;;;;;;;4.30;1.73;;;;;;;23.95;56.62;100627.44;4975261;28;20463;-72
2022/05/16 12:14:02;;;;;;;1.35;1.15;;;;;;;24.58;55.40;100631.28;4975301;28;20393;-71
2022/05/16 12:16:35;;;;;;;3.28;1.20;;;;;;;24.82;54.62;100630.66;4972018;28;20401;-72